createdAt,value
2023-10-10T00:00:05.724Z,-18481.50
2023-10-10T00:03:34.528Z,-18483.44
2023-10-10T00:06:49.315Z,-18485.22
2023-10-10T00:09:59.416Z,-18485.75
2023-10-10T00:13:16.759Z,-18487.69
2023-10-10T00:16:38.904Z,-18487.97
2023-10-10T00:19:57.269Z,-18487.97
2023-10-10T00:23:21.677Z,-18487.53
2023-10-10T00:26:37.742Z,-18486.19
2023-10-10T00:29:49.852Z,-18486.88
2023-10-10T00:33:01.725Z,-18485.50
2023-10-10T00:36:25.666Z,-18484.81
2023-10-10T00:39:46.047Z,-18483.03
2023-10-10T00:43:04.257Z,-18480.69
2023-10-10T00:46:21.053Z,-18480.16
2023-10-10T00:49:35.390Z,-18478.78
2023-10-10T00:52:52.721Z,-18479.72
2023-10-10T00:56:02.466Z,-18478.38
2023-10-10T00:59:18.698Z,-18478.78
2023-10-10T01:02:30.441Z,-18476.72
2023-10-10T01:05:47.721Z,-18474.66
2023-10-10T01:09:00.209Z,-18473.00
2023-10-10T01:12:12.475Z,-18471.09
2023-10-10T01:15:39.033Z,-18469.59
2023-10-10T01:18:58.055Z,-18470.41
2023-10-10T01:22:27.022Z,-18471.09
2023-10-10T01:25:49.051Z,-18471.78
2023-10-10T01:29:22.383Z,-18470.00
2023-10-10T01:32:42.390Z,-18469.72
2023-10-10T01:35:56.832Z,-18470.00
2023-10-10T01:39:23.331Z,-18469.72
2023-10-10T01:42:51.828Z,-18470.00
2023-10-10T01:46:20.368Z,-18468.63
2023-10-10T01:49:37.261Z,-18468.91
2023-10-10T01:52:53.091Z,-18468.91
2023-10-10T01:56:11.622Z,-18470.56
2023-10-10T01:59:28.370Z,-18470.81
2023-10-10T02:02:41.531Z,-18470.28
2023-10-10T02:05:59.145Z,-18468.91
2023-10-10T02:09:21.107Z,-18473.56
2023-10-10T02:12:41.416Z,-18473.69
2023-10-10T02:16:08.392Z,-18471.50
2023-10-10T02:19:30.597Z,-18472.47
2023-10-10T02:22:55.979Z,-18470.69
2023-10-10T02:26:25.280Z,-18470.00
2023-10-10T02:29:39.117Z,-18471.22
2023-10-10T02:32:51.601Z,-18468.63
2023-10-10T02:36:14.871Z,-18469.44
2023-10-10T02:39:33.974Z,-18468.50
2023-10-10T02:42:55.645Z,-18469.72
2023-10-10T02:46:12.918Z,-18469.72
2023-10-10T02:49:33.728Z,-18470.28
2023-10-10T02:52:51.972Z,-18470.00
2023-10-10T02:56:06.389Z,-18469.19
2023-10-10T02:59:25.476Z,-18470.69
2023-10-10T03:02:43.150Z,-18471.22
2023-10-10T03:05:59.310Z,-18471.66
2023-10-10T03:09:38.696Z,-18470.13
2023-10-10T03:13:08.701Z,-18469.72
2023-10-10T03:16:37.334Z,-18469.03
2023-10-10T03:19:57.241Z,-18470.97
2023-10-10T03:23:16.955Z,-18473.84
2023-10-10T03:26:54.815Z,-18471.38
2023-10-10T03:30:32.880Z,-18471.09
2023-10-10T03:34:04.988Z,-18469.72
2023-10-10T03:37:36.860Z,-18470.56
2023-10-10T03:41:13.473Z,-18470.13
2023-10-10T03:44:42.682Z,-18471.78
2023-10-10T03:48:17.345Z,-18470.41
2023-10-10T03:52:05.528Z,-18472.75
2023-10-10T03:55:38.813Z,-18471.91
2023-10-10T03:59:12.576Z,-18473.16
2023-10-10T04:02:44.460Z,-18472.75
2023-10-10T04:06:13.567Z,-18472.75
2023-10-10T04:09:42.356Z,-18477.00
2023-10-10T04:13:12.857Z,-18475.50
2023-10-10T04:16:39.296Z,-18475.50
2023-10-10T04:20:12.957Z,-18474.66
2023-10-10T04:23:46.841Z,-18474.38
2023-10-10T04:27:21.409Z,-18475.22
2023-10-10T04:30:52.529Z,-18476.59
2023-10-10T04:34:21.659Z,-18476.03
2023-10-10T04:37:54.799Z,-18476.72
2023-10-10T04:41:36.236Z,-18476.44
2023-10-10T04:45:09.559Z,-18480.56
2023-10-10T04:48:52.555Z,-18478.78
2023-10-10T04:52:27.558Z,-18480.16
2023-10-10T04:56:01.423Z,-18478.22
2023-10-10T04:59:31.182Z,-18479.47
2023-10-10T05:02:59.648Z,-18476.31
2023-10-10T05:06:29.609Z,-18476.03
2023-10-10T05:10:04.914Z,-18477.94
2023-10-10T05:13:35.476Z,-18479.72
2023-10-10T05:17:09.470Z,-18481.78
2023-10-10T05:20:41.906Z,-18483.16
2023-10-10T05:23:51.804Z,-18483.44
2023-10-10T05:27:05.945Z,-18483.97
2023-10-10T05:30:25.332Z,-18484.25
2023-10-10T05:33:34.465Z,-18485.75
2023-10-10T05:36:44.641Z,-18486.19
2023-10-10T05:39:58.523Z,-18488.63
2023-10-10T05:43:12.259Z,-18487.81
2023-10-10T05:46:19.701Z,-18490.00
2023-10-10T05:49:32.076Z,-18489.75
2023-10-10T05:52:39.453Z,-18488.91
2023-10-10T05:55:46.337Z,-18489.59
2023-10-10T05:58:53.232Z,-18491.53
2023-10-10T06:01:58.144Z,-18493.03
2023-10-10T06:05:08.045Z,-18495.75
2023-10-10T06:08:17.766Z,-18495.91
2023-10-10T06:11:27.475Z,-18498.50
2023-10-10T06:14:33.560Z,-18500.69
2023-10-10T06:17:44.768Z,-18503.31
2023-10-10T06:21:08.817Z,-18502.62
2023-10-10T06:24:16.764Z,-18505.50
2023-10-10T06:27:25.552Z,-18506.59
2023-10-10T06:30:34.368Z,-18504.41
2023-10-10T06:33:43.322Z,-18503.72
2023-10-10T06:36:53.983Z,-18503.97
2023-10-10T06:40:00.102Z,-18504.94
2023-10-10T06:43:10.518Z,-18510.00
2023-10-10T06:46:20.720Z,-18510.28
2023-10-10T06:49:46.206Z,-18508.50
2023-10-10T06:52:54.550Z,-18513.16
2023-10-10T06:56:18.378Z,-18514.00
2023-10-10T06:59:30.033Z,-18516.19
2023-10-10T07:02:44.630Z,-18519.47
2023-10-10T07:05:53.142Z,-18520.84
2023-10-10T07:09:21.309Z,-18522.88
2023-10-10T07:12:30.032Z,-18521.78
2023-10-10T07:15:42.564Z,-18521.38
2023-10-10T07:18:59.931Z,-18519.75
2023-10-10T07:22:14.282Z,-18521.66
2023-10-10T07:25:35.036Z,-18523.16
2023-10-10T07:28:59.396Z,-18523.72
2023-10-10T07:32:17.756Z,-18522.88
2023-10-10T07:35:28.866Z,-18525.34
2023-10-10T07:38:37.469Z,-18522.06
2023-10-10T07:41:48.841Z,-18521.09
2023-10-10T07:44:52.027Z,-18523.44
2023-10-10T07:48:00.145Z,-18526.59
2023-10-10T07:51:11.963Z,-18528.38
2023-10-10T07:54:31.785Z,-18530.00
2023-10-10T07:57:56.384Z,-18532.47
2023-10-10T08:01:14.970Z,-18534.38
2023-10-10T08:04:24.733Z,-18533.97
2023-10-10T08:07:31.678Z,-18536.97
2023-10-10T08:10:41.273Z,-18538.34
2023-10-10T08:13:50.735Z,-18542.03
2023-10-10T08:17:02.789Z,-18545.06
2023-10-10T08:20:28.449Z,-18548.88
2023-10-10T08:23:38.016Z,-18555.47
2023-10-10T08:26:46.483Z,-18554.63
2023-10-10T08:29:54.618Z,-18550.41
2023-10-10T08:33:03.202Z,-18554.63
2023-10-10T08:36:12.117Z,-18555.72
2023-10-10T08:39:18.157Z,-18557.09
2023-10-10T08:42:27.326Z,-18557.78
2023-10-10T08:45:42.139Z,-18558.31
2023-10-10T08:48:47.976Z,-18556.97
2023-10-10T08:51:55.641Z,-18556.53
2023-10-10T08:55:06.649Z,-18554.63
2023-10-10T08:58:15.410Z,-18559.00
2023-10-10T09:01:20.363Z,-18561.88
2023-10-10T09:04:33.572Z,-18558.59
2023-10-10T09:07:45.480Z,-18557.91
2023-10-10T09:10:57.784Z,-18559.84
2023-10-10T09:14:14.097Z,-18562.84
2023-10-10T09:17:38.632Z,-18563.78
2023-10-10T09:20:48.887Z,-18566.13
2023-10-10T09:24:27.184Z,-18564.63
2023-10-10T09:27:37.217Z,-18564.22
2023-10-10T09:30:48.361Z,-18563.13
2023-10-10T09:33:56.327Z,-18566.94
2023-10-10T09:37:01.066Z,-18573.78
2023-10-10T09:40:09.443Z,-18576.38
2023-10-10T09:43:25.471Z,-18575.16
2023-10-10T09:46:37.623Z,-18576.22
2023-10-10T09:49:45.310Z,-18577.59
2023-10-10T09:52:55.687Z,-18577.59
2023-10-10T09:56:04.519Z,-18573.63
2023-10-10T09:59:12.772Z,-18580.47
2023-10-10T10:02:37.480Z,-18583.06
2023-10-10T10:05:43.707Z,-18582.94
2023-10-10T10:09:04.049Z,-18581.69
2023-10-10T10:12:22.138Z,-18586.63
2023-10-10T10:15:51.642Z,-18590.19
2023-10-10T10:19:27.241Z,-18593.44
2023-10-10T10:22:34.064Z,-18600.41
2023-10-10T10:25:48.390Z,-18608.47
2023-10-10T10:28:59.971Z,-18608.75
2023-10-10T10:32:12.847Z,-18606.84
2023-10-10T10:35:24.851Z,-18597.56
2023-10-10T10:38:35.110Z,-18593.44
2023-10-10T10:41:45.760Z,-18588.81
2023-10-10T10:45:01.792Z,-18584.97
2023-10-10T10:48:30.382Z,-18587.72
2023-10-10T10:51:45.140Z,-18589.34
2023-10-10T10:54:51.825Z,-18585.38
2023-10-10T10:58:23.106Z,-18586.75
2023-10-10T11:01:32.352Z,-18591.81
2023-10-10T11:04:40.024Z,-18602.47
2023-10-10T11:07:50.796Z,-18604.66
2023-10-10T11:11:21.275Z,-18609.03
2023-10-10T11:14:32.329Z,-18603.28
2023-10-10T11:17:41.659Z,-18603.84
2023-10-10T11:20:58.654Z,-18607.13
2023-10-10T11:24:06.089Z,-18607.66
2023-10-10T11:27:14.999Z,-18608.88
2023-10-10T11:30:26.505Z,-18608.75
2023-10-10T11:33:48.934Z,-18609.44
2023-10-10T11:37:12.676Z,-18613.38
2023-10-10T11:40:28.812Z,-18619.41
2023-10-10T11:43:33.510Z,-18619.81
2023-10-10T11:46:40.636Z,-18623.22
2023-10-10T11:49:57.546Z,-18629.50
2023-10-10T11:53:03.078Z,-18633.31
2023-10-10T11:56:15.180Z,-18637.81
2023-10-10T11:59:20.506Z,-18634.97
2023-10-10T12:02:35.324Z,-18638.63
2023-10-10T12:05:50.092Z,-18636.31
2023-10-10T12:08:54.639Z,-18636.59
2023-10-10T12:12:04.979Z,-18632.50
2023-10-10T12:15:19.381Z,-18636.47
2023-10-10T12:18:33.327Z,-18640.97
2023-10-10T12:21:40.304Z,-18637.81
2023-10-10T12:24:49.560Z,-18638.09
2023-10-10T12:28:02.290Z,-18646.97
2023-10-10T12:31:18.627Z,-18650.78
2023-10-10T12:34:26.363Z,-18652.28
2023-10-10T12:37:39.661Z,-18647.78
2023-10-10T12:40:46.004Z,-18644.50
2023-10-10T12:43:51.924Z,-18645.03
2023-10-10T12:46:57.098Z,-18650.78
2023-10-10T12:50:02.735Z,-18648.31
2023-10-10T12:53:17.223Z,-18641.22
2023-10-10T12:56:25.324Z,-18640.97
2023-10-10T12:59:35.164Z,-18641.91
2023-10-10T13:02:44.579Z,-18642.31
2023-10-10T13:06:00.791Z,-18645.31
2023-10-10T13:09:07.661Z,-18650.66
2023-10-10T13:12:20.587Z,-18655.56
2023-10-10T13:15:33.045Z,-18661.56
2023-10-10T13:18:41.087Z,-18665.78
2023-10-10T13:21:49.686Z,-18668.09
2023-10-10T13:24:57.163Z,-18672.84
2023-10-10T13:28:04.579Z,-18679.81
2023-10-10T13:31:16.494Z,-18674.91
2023-10-10T13:34:26.046Z,-18671.91
2023-10-10T13:37:35.335Z,-18674.50
2023-10-10T13:40:50.632Z,-18674.22
2023-10-10T13:44:03.161Z,-18672.84
2023-10-10T13:47:10.917Z,-18673.66
2023-10-10T13:50:32.905Z,-18676.41
2023-10-10T13:53:42.666Z,-18687.44
2023-10-10T13:56:54.293Z,-18688.94
2023-10-10T14:00:22.747Z,-18685.53
2023-10-10T14:03:33.448Z,-18689.47
2023-10-10T14:06:49.232Z,-18702.94
2023-10-10T14:10:02.778Z,-18703.63
2023-10-10T14:13:29.265Z,-18693.69
2023-10-10T14:16:37.266Z,-18695.47
2023-10-10T14:19:45.408Z,-18695.75
2023-10-10T14:22:56.341Z,-18699.28
2023-10-10T14:26:21.016Z,-18696.69
2023-10-10T14:29:43.414Z,-18699.81
2023-10-10T14:32:57.775Z,-18688.78
2023-10-10T14:36:06.134Z,-18675.44
2023-10-10T14:39:31.419Z,-18665.78
2023-10-10T14:42:46.521Z,-18662.38
2023-10-10T14:46:02.166Z,-18665.78
2023-10-10T14:49:19.153Z,-18669.88
2023-10-10T14:52:38.555Z,-18677.22
2023-10-10T14:55:53.017Z,-18674.50
2023-10-10T14:59:06.375Z,-18664.97
2023-10-10T15:02:21.128Z,-18657.47
2023-10-10T15:05:33.725Z,-18649.28
2023-10-10T15:08:46.960Z,-18645.31
2023-10-10T15:12:01.043Z,-18637.53
2023-10-10T15:15:13.253Z,-18636.87
2023-10-10T15:18:24.598Z,-18633.03
2023-10-10T15:21:38.709Z,-18631.28
2023-10-10T15:24:54.628Z,-18628.41
2023-10-10T15:28:06.378Z,-18624.31
2023-10-10T15:31:20.936Z,-18619.13
2023-10-10T15:34:35.499Z,-18612.56
2023-10-10T15:37:53.786Z,-18606.56
2023-10-10T15:41:20.748Z,-18602.19
2023-10-10T15:44:34.108Z,-18598.78
2023-10-10T15:47:49.084Z,-18596.06
2023-10-10T15:51:19.973Z,-18593.19
2023-10-10T15:54:37.441Z,-18589.22
2023-10-10T15:57:58.277Z,-18586.50
2023-10-10T16:01:19.259Z,-18582.38
2023-10-10T16:04:31.651Z,-18578.56
2023-10-10T16:08:06.356Z,-18574.88
2023-10-10T16:11:25.754Z,-18571.59
2023-10-10T16:14:41.168Z,-18568.44
2023-10-10T16:17:55.929Z,-18566.13
2023-10-10T16:21:09.307Z,-18564.47
2023-10-10T16:24:22.656Z,-18563.13
2023-10-10T16:27:39.175Z,-18559.00
2023-10-10T16:30:58.974Z,-18556.41
2023-10-10T16:34:11.330Z,-18554.91
2023-10-10T16:37:29.302Z,-18552.31
2023-10-10T16:40:41.739Z,-18551.63
2023-10-10T16:44:01.437Z,-18551.34
2023-10-10T16:47:19.587Z,-18549.72
2023-10-10T16:50:35.034Z,-18548.88
2023-10-10T16:53:48.712Z,-18548.34
2023-10-10T16:57:05.000Z,-18547.25
2023-10-10T17:00:21.392Z,-18545.88
2023-10-10T17:03:35.246Z,-18544.91
2023-10-10T17:06:45.681Z,-18543.41
2023-10-10T17:09:58.032Z,-18541.91
2023-10-10T17:13:09.426Z,-18541.38
2023-10-10T17:16:34.621Z,-18542.03
2023-10-10T17:19:48.522Z,-18541.78
2023-10-10T17:23:05.280Z,-18543.41
2023-10-10T17:26:19.460Z,-18544.38
2023-10-10T17:29:29.480Z,-18545.19
2023-10-10T17:32:43.912Z,-18547.38
2023-10-10T17:35:59.434Z,-18547.66
2023-10-10T17:39:12.588Z,-18547.53
2023-10-10T17:42:33.447Z,-18547.38
2023-10-10T17:45:45.445Z,-18548.47
2023-10-10T17:49:01.079Z,-18549.03
2023-10-10T17:52:09.999Z,-18549.56
2023-10-10T17:55:22.375Z,-18550.81
2023-10-10T17:58:39.541Z,-18551.09
2023-10-10T18:01:50.206Z,-18552.16
2023-10-10T18:05:01.388Z,-18554.91
2023-10-10T18:08:13.285Z,-18553.81
2023-10-10T18:11:30.597Z,-18552.16
2023-10-10T18:14:45.271Z,-18551.34
2023-10-10T18:18:01.624Z,-18550.66
2023-10-10T18:21:11.893Z,-18550.41
2023-10-10T18:24:31.516Z,-18550.53
2023-10-10T18:27:43.208Z,-18549.31
2023-10-10T18:30:59.649Z,-18549.31
2023-10-10T18:34:12.363Z,-18549.16
2023-10-10T18:37:26.644Z,-18551.09
2023-10-10T18:40:41.498Z,-18550.94
2023-10-10T18:43:56.713Z,-18550.53
2023-10-10T18:47:08.823Z,-18550.66
2023-10-10T18:50:26.968Z,-18550.81
2023-10-10T18:53:34.916Z,-18551.75
2023-10-10T18:56:46.082Z,-18550.66
2023-10-10T18:59:58.289Z,-18549.16
2023-10-10T19:03:18.689Z,-18548.47
2023-10-10T19:06:31.243Z,-18548.06
2023-10-10T19:09:47.226Z,-18548.34
2023-10-10T19:13:01.255Z,-18548.19
2023-10-10T19:16:11.727Z,-18549.16
2023-10-10T19:19:23.093Z,-18548.19
2023-10-10T19:22:37.981Z,-18547.53
2023-10-10T19:25:51.753Z,-18547.25
2023-10-10T19:29:07.128Z,-18545.59
2023-10-10T19:32:22.542Z,-18543.97
2023-10-10T19:35:39.844Z,-18542.31
2023-10-10T19:38:51.368Z,-18541.22
2023-10-10T19:42:08.154Z,-18539.59
2023-10-10T19:45:28.569Z,-18540.25
2023-10-10T19:48:38.609Z,-18540.94
2023-10-10T19:51:54.384Z,-18538.75
2023-10-10T19:55:21.264Z,-18536.84
2023-10-10T19:58:39.464Z,-18535.47
2023-10-10T20:01:52.726Z,-18534.66
2023-10-10T20:05:11.400Z,-18532.75
2023-10-10T20:08:36.840Z,-18532.75
2023-10-10T20:11:49.991Z,-18532.59
2023-10-10T20:15:04.688Z,-18532.19
2023-10-10T20:18:27.547Z,-18529.47
2023-10-10T20:21:41.445Z,-18527.12
2023-10-10T20:24:59.926Z,-18525.63
2023-10-10T20:28:11.911Z,-18524.53
2023-10-10T20:31:27.342Z,-18523.97
2023-10-10T20:34:38.020Z,-18523.28
2023-10-10T20:37:51.167Z,-18522.62
2023-10-10T20:41:04.703Z,-18523.56
2023-10-10T20:44:19.226Z,-18520.97
2023-10-10T20:47:27.814Z,-18519.88
2023-10-10T20:50:46.209Z,-18519.06
2023-10-10T20:53:54.838Z,-18518.38
2023-10-10T20:57:07.139Z,-18517.81
2023-10-10T21:00:25.217Z,-18519.06
2023-10-10T21:03:43.676Z,-18518.50
2023-10-10T21:07:03.395Z,-18516.88
2023-10-10T21:10:19.100Z,-18517.00
2023-10-10T21:13:34.458Z,-18516.72
2023-10-10T21:16:47.097Z,-18516.59
2023-10-10T21:19:58.832Z,-18515.63
2023-10-10T21:23:14.755Z,-18515.63
2023-10-10T21:26:26.093Z,-18516.31
2023-10-10T21:29:41.669Z,-18516.88
2023-10-10T21:32:54.747Z,-18516.59
2023-10-10T21:36:07.967Z,-18514.94
2023-10-10T21:39:24.259Z,-18513.31
2023-10-10T21:42:39.514Z,-18512.63
2023-10-10T21:45:52.523Z,-18512.88
2023-10-10T21:49:03.842Z,-18511.25
2023-10-10T21:52:15.394Z,-18511.38
2023-10-10T21:55:29.099Z,-18510.28
2023-10-10T21:58:41.100Z,-18508.91
2023-10-10T22:01:57.613Z,-18509.19
2023-10-10T22:05:12.153Z,-18509.88
2023-10-10T22:08:31.824Z,-18510.28
2023-10-10T22:11:45.854Z,-18510.56
2023-10-10T22:14:54.162Z,-18510.84
2023-10-10T22:18:12.358Z,-18510.00
2023-10-10T22:21:26.121Z,-18511.38
2023-10-10T22:24:41.797Z,-18514.13
2023-10-10T22:27:54.494Z,-18515.78
2023-10-10T22:31:08.739Z,-18517.69
2023-10-10T22:34:22.222Z,-18520.00
2023-10-10T22:37:38.983Z,-18519.31
2023-10-10T22:40:51.744Z,-18520.69
2023-10-10T22:44:03.821Z,-18522.88
2023-10-10T22:47:14.075Z,-18522.47
2023-10-10T22:50:27.936Z,-18520.97
2023-10-10T22:53:37.852Z,-18522.06
2023-10-10T22:56:47.282Z,-18520.16
2023-10-10T22:59:58.353Z,-18517.69
2023-10-10T23:03:15.443Z,-18518.91
2023-10-10T23:06:28.749Z,-18518.50
2023-10-10T23:09:47.451Z,-18515.78
2023-10-10T23:12:58.360Z,-18512.47
2023-10-10T23:16:15.840Z,-18510.56
2023-10-10T23:19:29.895Z,-18508.66
2023-10-10T23:22:42.972Z,-18506.31
2023-10-10T23:25:55.451Z,-18504.94
2023-10-10T23:29:07.722Z,-18503.72
2023-10-10T23:32:19.477Z,-18504.41
2023-10-10T23:35:30.706Z,-18505.34
2023-10-10T23:38:48.591Z,-18505.22
2023-10-10T23:42:00.867Z,-18504.53
2023-10-10T23:45:19.976Z,-18503.16
2023-10-10T23:48:37.312Z,-18503.03
2023-10-10T23:51:50.478Z,-18501.78
2023-10-10T23:55:04.597Z,-18500.69
2023-10-10T23:58:18.728Z,-18500.16
